Sirius — SW7893 — position and weather

sailwx.info

Track history (hours):
 
Tides and Currents Weather Stations Pressure Air Temp Water Temp Dewpoint Dewpoint Depression Visibility Wind Speed Wind Dir Waves Ship Positions

Sirius

Last reported at 2013-Aug-27 05:33 UTC. Time now 2014-Nov-26 21:26 UTC.
Position N 37°33' W 000°36'.
Warning: this ship's position is years out of date!

; draft 3.6 m.

Type: Pleasure craft. MMSI: 241059000.

Date/timePositionNaut miles runAvg speedWind from/ knotsBaromVisibWave heightAir tempDewpointWater temp
2013-Aug-27 05:33N 37°33' W 000°36'1010.2
2013-Aug-27 04:33N 37°40' W 000°27'12010.6
2013-Aug-26 17:14N 38°55' E 001°33'710.3
2013-Aug-26 16:33N 39°01' E 001°38'1010.0
2013-Aug-26 15:33N 39°08' E 001°47'1010.1
2013-Aug-26 14:33N 39°15' E 001°57'1010.1
2013-Aug-26 13:33N 39°22' E 002°07'1110.6
2013-Aug-26 12:33N 39°29' E 002°17'6 0.6
2013-Aug-26 02:28N 39°33' E 002°23'0 0.0
2013-Aug-26 00:22N 39°33' E 002°23'0 0.0
2013-Aug-25 21:28N 39°33' E 002°23'0 0.0
2013-Aug-25 20:28N 39°33' E 002°23'5 0.5
2013-Aug-25 11:28N 39°31' E 002°28'0 0.0
2013-Aug-25 10:28N 39°31' E 002°28'0 0.0
2013-Aug-25 09:31N 39°31' E 002°28'0 0.0
2013-Aug-25 08:28N 39°31' E 002°28'0 0.0
2013-Aug-24 22:22N 39°31' E 002°28'0 0.0
2013-Aug-24 21:22N 39°31' E 002°28'0 0.0
2013-Aug-24 20:10N 39°31' E 002°28'0 0.0
2013-Aug-24 15:04N 39°31' E 002°28'0 0.0
2013-Aug-24 13:10N 39°31' E 002°28'2 3.4
2013-Aug-24 12:33N 39°29' E 002°27'5 4.7
2013-Aug-24 11:33N 39°31' E 002°33'0 0.0
2013-Aug-24 03:15N 39°31' E 002°33'0 0.0
2013-Aug-23 17:16N 39°31' E 002°33'5 6.7
2013-Aug-23 16:34N 39°33' E 002°38'1 1.3
2013-Aug-23 15:29N 39°34' E 002°38'0 0.1
2013-Aug-23 14:29N 39°34' E 002°38'0 0.1
2013-Aug-23 13:11N 39°34' E 002°38'0 0.0
2013-Aug-23 12:32N 39°34' E 002°38'  
Track history (hours):
 
Tides and Currents Weather Stations Pressure Air Temp Water Temp Dewpoint Dewpoint Depression Visibility Wind Speed Wind Dir Waves Ship Positions

Sirius

Last reported at 2013-Aug-27 05:33 UTC. Time now 2014-Nov-26 21:26 UTC.
Position N 37°33' W 000°36'.
Warning: this ship's position is years out of date!

; draft 3.6 m.

Type: Pleasure craft. MMSI: 241059000.

Date/timePositionNaut miles runAvg speedWind from/ knotsBaromVisibWave heightAir tempDewpointWater temp
2013-Aug-27 05:33N 37°33' W 000°36'1010.2
2013-Aug-27 04:33N 37°40' W 000°27'12010.6
2013-Aug-26 17:14N 38°55' E 001°33'710.3
2013-Aug-26 16:33N 39°01' E 001°38'1010.0
2013-Aug-26 15:33N 39°08' E 001°47'1010.1
2013-Aug-26 14:33N 39°15' E 001°57'1010.1
2013-Aug-26 13:33N 39°22' E 002°07'1110.6
2013-Aug-26 12:33N 39°29' E 002°17'6 0.6
2013-Aug-26 02:28N 39°33' E 002°23'0 0.0
2013-Aug-26 00:22N 39°33' E 002°23'0 0.0
2013-Aug-25 21:28N 39°33' E 002°23'0 0.0
2013-Aug-25 20:28N 39°33' E 002°23'5 0.5
2013-Aug-25 11:28N 39°31' E 002°28'0 0.0
2013-Aug-25 10:28N 39°31' E 002°28'0 0.0
2013-Aug-25 09:31N 39°31' E 002°28'0 0.0
2013-Aug-25 08:28N 39°31' E 002°28'0 0.0
2013-Aug-24 22:22N 39°31' E 002°28'0 0.0
2013-Aug-24 21:22N 39°31' E 002°28'0 0.0
2013-Aug-24 20:10N 39°31' E 002°28'0 0.0
2013-Aug-24 15:04N 39°31' E 002°28'0 0.0
2013-Aug-24 13:10N 39°31' E 002°28'2 3.4
2013-Aug-24 12:33N 39°29' E 002°27'5 4.7
2013-Aug-24 11:33N 39°31' E 002°33'0 0.0
2013-Aug-24 03:15N 39°31' E 002°33'0 0.0
2013-Aug-23 17:16N 39°31' E 002°33'5 6.7
2013-Aug-23 16:34N 39°33' E 002°38'1 1.3
2013-Aug-23 15:29N 39°34' E 002°38'0 0.1
2013-Aug-23 14:29N 39°34' E 002°38'0 0.1
2013-Aug-23 13:11N 39°34' E 002°38'0 0.0
2013-Aug-23 12:32N 39°34' E 002°38'  

Dump ship's entire track history